sensor_id;sensor_type;location;lat;lon;timestamp;P1;durP1;ratioP1;P2;durP2;ratioP2
22176;SDS011;11254;50.098;8.726;2024-03-07T00:02:13;47.05;;;23.48;;
22176;SDS011;11254;50.098;8.726;2024-03-07T00:04:44;46.45;;;23.00;;
22176;SDS011;11254;50.098;8.726;2024-03-07T00:07:12;50.50;;;24.35;;
22176;SDS011;11254;50.098;8.726;2024-03-07T00:09:42;52.70;;;23.63;;
22176;SDS011;11254;50.098;8.726;2024-03-07T00:12:12;51.88;;;24.88;;
22176;SDS011;11254;50.098;8.726;2024-03-07T00:14:43;48.05;;;22.92;;
22176;SDS011;11254;50.098;8.726;2024-03-07T00:17:12;45.38;;;22.90;;
22176;SDS011;11254;50.098;8.726;2024-03-07T00:19:41;51.20;;;23.33;;
22176;SDS011;11254;50.098;8.726;2024-03-07T00:22:10;46.38;;;22.20;;
22176;SDS011;11254;50.098;8.726;2024-03-07T00:24:39;43.58;;;22.52;;
22176;SDS011;11254;50.098;8.726;2024-03-07T00:27:09;49.40;;;22.65;;
22176;SDS011;11254;50.098;8.726;2024-03-07T00:29:40;45.10;;;21.50;;
22176;SDS011;11254;50.098;8.726;2024-03-07T00:32:11;52.03;;;24.23;;
22176;SDS011;11254;50.098;8.726;2024-03-07T00:34:41;50.63;;;22.95;;
22176;SDS011;11254;50.098;8.726;2024-03-07T00:37:10;50.40;;;23.85;;
22176;SDS011;11254;50.098;8.726;2024-03-07T00:39:39;48.25;;;21.92;;
22176;SDS011;11254;50.098;8.726;2024-03-07T00:42:08;46.17;;;22.38;;
22176;SDS011;11254;50.098;8.726;2024-03-07T00:44:36;45.13;;;22.73;;
22176;SDS011;11254;50.098;8.726;2024-03-07T00:47:05;43.40;;;21.95;;
22176;SDS011;11254;50.098;8.726;2024-03-07T00:49:35;47.83;;;22.88;;
22176;SDS011;11254;50.098;8.726;2024-03-07T00:52:03;50.92;;;22.88;;
22176;SDS011;11254;50.098;8.726;2024-03-07T00:54:33;45.25;;;22.15;;
22176;SDS011;11254;50.098;8.726;2024-03-07T00:57:02;48.78;;;22.27;;
22176;SDS011;11254;50.098;8.726;2024-03-07T00:59:30;44.92;;;21.88;;
22176;SDS011;11254;50.098;8.726;2024-03-07T01:01:59;45.88;;;22.38;;
22176;SDS011;11254;50.098;8.726;2024-03-07T01:04:28;45.35;;;21.58;;
22176;SDS011;11254;50.098;8.726;2024-03-07T01:06:59;47.17;;;22.25;;
22176;SDS011;11254;50.098;8.726;2024-03-07T01:09:28;47.38;;;22.25;;
22176;SDS011;11254;50.098;8.726;2024-03-07T01:11:56;43.80;;;21.50;;
22176;SDS011;11254;50.098;8.726;2024-03-07T01:14:26;44.38;;;22.05;;
22176;SDS011;11254;50.098;8.726;2024-03-07T01:16:55;43.90;;;20.85;;
22176;SDS011;11254;50.098;8.726;2024-03-07T01:19:23;46.22;;;22.67;;
22176;SDS011;11254;50.098;8.726;2024-03-07T01:21:52;48.60;;;21.40;;
22176;SDS011;11254;50.098;8.726;2024-03-07T01:24:22;46.72;;;22.60;;
22176;SDS011;11254;50.098;8.726;2024-03-07T01:26:51;47.05;;;22.13;;
22176;SDS011;11254;50.098;8.726;2024-03-07T01:29:20;47.00;;;21.88;;
22176;SDS011;11254;50.098;8.726;2024-03-07T01:31:49;41.28;;;21.38;;
22176;SDS011;11254;50.098;8.726;2024-03-07T01:34:17;46.38;;;21.52;;
22176;SDS011;11254;50.098;8.726;2024-03-07T01:36:46;48.25;;;22.30;;
22176;SDS011;11254;50.098;8.726;2024-03-07T01:39:15;45.08;;;22.77;;
22176;SDS011;11254;50.098;8.726;2024-03-07T01:41:45;43.72;;;21.35;;
22176;SDS011;11254;50.098;8.726;2024-03-07T01:44:14;40.95;;;20.65;;
22176;SDS011;11254;50.098;8.726;2024-03-07T01:46:43;45.00;;;21.45;;
22176;SDS011;11254;50.098;8.726;2024-03-07T01:49:11;47.35;;;21.52;;
22176;SDS011;11254;50.098;8.726;2024-03-07T01:51:41;47.17;;;22.98;;
22176;SDS011;11254;50.098;8.726;2024-03-07T01:54:10;44.40;;;21.42;;
22176;SDS011;11254;50.098;8.726;2024-03-07T01:56:38;43.35;;;21.65;;
22176;SDS011;11254;50.098;8.726;2024-03-07T01:59:08;46.03;;;20.92;;
22176;SDS011;11254;50.098;8.726;2024-03-07T02:01:37;44.30;;;21.80;;
22176;SDS011;11254;50.098;8.726;2024-03-07T02:04:06;44.47;;;21.33;;
22176;SDS011;11254;50.098;8.726;2024-03-07T02:06:35;50.10;;;21.77;;
22176;SDS011;11254;50.098;8.726;2024-03-07T02:09:03;41.67;;;20.88;;
22176;SDS011;11254;50.098;8.726;2024-03-07T02:11:32;48.45;;;21.60;;
22176;SDS011;11254;50.098;8.726;2024-03-07T02:14:01;44.33;;;22.63;;
22176;SDS011;11254;50.098;8.726;2024-03-07T02:16:30;47.05;;;21.73;;
22176;SDS011;11254;50.098;8.726;2024-03-07T02:18:59;43.72;;;20.85;;
22176;SDS011;11254;50.098;8.726;2024-03-07T02:21:29;45.25;;;21.85;;
22176;SDS011;11254;50.098;8.726;2024-03-07T02:23:59;44.33;;;21.75;;
22176;SDS011;11254;50.098;8.726;2024-03-07T02:26:27;49.40;;;22.85;;
22176;SDS011;11254;50.098;8.726;2024-03-07T02:28:56;42.95;;;21.70;;
22176;SDS011;11254;50.098;8.726;2024-03-07T02:31:24;42.35;;;20.45;;
22176;SDS011;11254;50.098;8.726;2024-03-07T02:34:01;41.92;;;21.65;;
22176;SDS011;11254;50.098;8.726;2024-03-07T02:36:32;40.42;;;19.45;;
22176;SDS011;11254;50.098;8.726;2024-03-07T02:39:00;41.97;;;20.63;;
22176;SDS011;11254;50.098;8.726;2024-03-07T02:41:29;41.20;;;21.15;;
22176;SDS011;11254;50.098;8.726;2024-03-07T02:44:00;41.67;;;20.40;;
22176;SDS011;11254;50.098;8.726;2024-03-07T02:46:30;41.25;;;19.80;;
22176;SDS011;11254;50.098;8.726;2024-03-07T02:48:59;39.85;;;19.25;;
22176;SDS011;11254;50.098;8.726;2024-03-07T02:51:28;38.70;;;19.05;;
22176;SDS011;11254;50.098;8.726;2024-03-07T02:53:59;44.30;;;19.70;;
22176;SDS011;11254;50.098;8.726;2024-03-07T02:56:29;38.83;;;19.83;;
22176;SDS011;11254;50.098;8.726;2024-03-07T02:58:58;41.50;;;19.83;;
22176;SDS011;11254;50.098;8.726;2024-03-07T03:01:30;39.70;;;19.55;;
22176;SDS011;11254;50.098;8.726;2024-03-07T03:03:59;38.70;;;18.83;;
22176;SDS011;11254;50.098;8.726;2024-03-07T03:06:29;43.08;;;19.77;;
22176;SDS011;11254;50.098;8.726;2024-03-07T03:08:59;42.17;;;19.05;;
22176;SDS011;11254;50.098;8.726;2024-03-07T03:11:28;38.92;;;18.95;;
22176;SDS011;11254;50.098;8.726;2024-03-07T03:13:57;40.38;;;19.33;;
22176;SDS011;11254;50.098;8.726;2024-03-07T03:16:26;45.38;;;20.15;;
22176;SDS011;11254;50.098;8.726;2024-03-07T03:19:13;42.10;;;20.38;;
22176;SDS011;11254;50.098;8.726;2024-03-07T03:21:42;45.42;;;20.75;;
22176;SDS011;11254;50.098;8.726;2024-03-07T03:24:12;45.80;;;19.95;;
22176;SDS011;11254;50.098;8.726;2024-03-07T03:26:42;42.55;;;19.75;;
22176;SDS011;11254;50.098;8.726;2024-03-07T03:29:10;45.20;;;20.33;;
22176;SDS011;11254;50.098;8.726;2024-03-07T03:31:40;45.58;;;20.33;;
22176;SDS011;11254;50.098;8.726;2024-03-07T03:34:09;40.92;;;18.88;;
22176;SDS011;11254;50.098;8.726;2024-03-07T03:36:41;37.40;;;17.95;;
22176;SDS011;11254;50.098;8.726;2024-03-07T03:39:09;44.83;;;20.45;;
22176;SDS011;11254;50.098;8.726;2024-03-07T03:41:41;37.92;;;18.15;;
22176;SDS011;11254;50.098;8.726;2024-03-07T03:44:10;37.45;;;17.77;;
22176;SDS011;11254;50.098;8.726;2024-03-07T03:46:39;37.33;;;17.40;;
22176;SDS011;11254;50.098;8.726;2024-03-07T03:49:08;39.47;;;17.95;;
22176;SDS011;11254;50.098;8.726;2024-03-07T03:51:37;39.10;;;17.02;;
22176;SDS011;11254;50.098;8.726;2024-03-07T03:54:06;35.42;;;17.02;;
22176;SDS011;11254;50.098;8.726;2024-03-07T03:56:34;39.78;;;18.20;;
22176;SDS011;11254;50.098;8.726;2024-03-07T03:59:07;33.10;;;15.75;;
22176;SDS011;11254;50.098;8.726;2024-03-07T04:01:36;33.88;;;16.38;;
22176;SDS011;11254;50.098;8.726;2024-03-07T04:04:05;33.08;;;16.55;;
22176;SDS011;11254;50.098;8.726;2024-03-07T04:06:34;33.90;;;17.08;;
22176;SDS011;11254;50.098;8.726;2024-03-07T04:09:03;36.15;;;16.80;;
22176;SDS011;11254;50.098;8.726;2024-03-07T04:11:32;32.95;;;16.33;;
22176;SDS011;11254;50.098;8.726;2024-03-07T04:14:04;41.60;;;17.23;;
22176;SDS011;11254;50.098;8.726;2024-03-07T04:16:34;41.58;;;17.98;;
22176;SDS011;11254;50.098;8.726;2024-03-07T04:19:02;35.83;;;17.38;;
22176;SDS011;11254;50.098;8.726;2024-03-07T04:21:31;35.58;;;17.20;;
22176;SDS011;11254;50.098;8.726;2024-03-07T04:24:00;37.00;;;16.67;;
22176;SDS011;11254;50.098;8.726;2024-03-07T04:26:29;37.20;;;17.27;;
22176;SDS011;11254;50.098;8.726;2024-03-07T04:28:58;37.95;;;17.65;;
22176;SDS011;11254;50.098;8.726;2024-03-07T04:31:27;37.13;;;17.65;;
22176;SDS011;11254;50.098;8.726;2024-03-07T04:33:57;39.33;;;18.67;;
22176;SDS011;11254;50.098;8.726;2024-03-07T04:36:28;40.33;;;18.63;;
22176;SDS011;11254;50.098;8.726;2024-03-07T04:38:58;36.83;;;17.55;;
22176;SDS011;11254;50.098;8.726;2024-03-07T04:41:29;38.40;;;18.50;;
22176;SDS011;11254;50.098;8.726;2024-03-07T04:43:57;41.42;;;19.30;;
22176;SDS011;11254;50.098;8.726;2024-03-07T04:46:26;39.95;;;18.23;;
22176;SDS011;11254;50.098;8.726;2024-03-07T04:48:56;41.50;;;18.63;;
22176;SDS011;11254;50.098;8.726;2024-03-07T04:51:25;39.72;;;18.10;;
22176;SDS011;11254;50.098;8.726;2024-03-07T04:53:53;39.10;;;17.02;;
22176;SDS011;11254;50.098;8.726;2024-03-07T04:56:22;36.85;;;18.38;;
22176;SDS011;11254;50.098;8.726;2024-03-07T04:58:50;39.85;;;17.38;;
22176;SDS011;11254;50.098;8.726;2024-03-07T05:01:20;37.22;;;18.00;;
22176;SDS011;11254;50.098;8.726;2024-03-07T05:03:48;37.15;;;17.77;;
22176;SDS011;11254;50.098;8.726;2024-03-07T05:06:19;38.80;;;18.50;;
22176;SDS011;11254;50.098;8.726;2024-03-07T05:08:48;38.33;;;18.85;;
22176;SDS011;11254;50.098;8.726;2024-03-07T05:11:17;36.85;;;16.42;;
22176;SDS011;11254;50.098;8.726;2024-03-07T05:13:46;42.67;;;17.70;;
22176;SDS011;11254;50.098;8.726;2024-03-07T05:16:15;40.45;;;17.58;;
22176;SDS011;11254;50.098;8.726;2024-03-07T05:18:44;41.15;;;18.20;;
22176;SDS011;11254;50.098;8.726;2024-03-07T05:21:13;41.00;;;18.25;;
22176;SDS011;11254;50.098;8.726;2024-03-07T05:24:00;41.60;;;18.45;;
22176;SDS011;11254;50.098;8.726;2024-03-07T05:26:29;37.72;;;18.23;;
22176;SDS011;11254;50.098;8.726;2024-03-07T05:29:01;42.63;;;18.98;;
22176;SDS011;11254;50.098;8.726;2024-03-07T05:31:32;38.80;;;18.42;;
22176;SDS011;11254;50.098;8.726;2024-03-07T05:34:01;43.03;;;18.40;;
22176;SDS011;11254;50.098;8.726;2024-03-07T05:36:31;39.50;;;18.38;;
22176;SDS011;11254;50.098;8.726;2024-03-07T05:39:00;36.63;;;17.98;;
22176;SDS011;11254;50.098;8.726;2024-03-07T05:41:35;38.67;;;18.17;;
22176;SDS011;11254;50.098;8.726;2024-03-07T05:44:03;37.08;;;17.13;;
22176;SDS011;11254;50.098;8.726;2024-03-07T05:46:35;36.05;;;17.27;;
22176;SDS011;11254;50.098;8.726;2024-03-07T05:49:07;42.10;;;18.15;;
22176;SDS011;11254;50.098;8.726;2024-03-07T05:51:36;36.75;;;16.50;;
22176;SDS011;11254;50.098;8.726;2024-03-07T06:05:32;36.88;;;17.08;;
22176;SDS011;11254;50.098;8.726;2024-03-07T06:08:01;38.47;;;17.27;;
22176;SDS011;11254;50.098;8.726;2024-03-07T06:10:33;34.13;;;16.25;;
22176;SDS011;11254;50.098;8.726;2024-03-07T06:13:02;35.92;;;16.85;;
22176;SDS011;11254;50.098;8.726;2024-03-07T06:15:37;34.70;;;16.50;;
22176;SDS011;11254;50.098;8.726;2024-03-07T06:18:06;34.95;;;16.73;;
22176;SDS011;11254;50.098;8.726;2024-03-07T06:20:39;37.15;;;17.15;;
22176;SDS011;11254;50.098;8.726;2024-03-07T06:23:09;33.95;;;16.17;;
22176;SDS011;11254;50.098;8.726;2024-03-07T06:25:38;35.47;;;16.60;;
22176;SDS011;11254;50.098;8.726;2024-03-07T06:28:14;32.88;;;16.20;;
22176;SDS011;11254;50.098;8.726;2024-03-07T06:30:43;36.67;;;16.95;;
22176;SDS011;11254;50.098;8.726;2024-03-07T06:33:13;31.05;;;14.90;;
22176;SDS011;11254;50.098;8.726;2024-03-07T06:35:44;35.58;;;16.60;;
22176;SDS011;11254;50.098;8.726;2024-03-07T06:38:13;35.33;;;17.58;;
22176;SDS011;11254;50.098;8.726;2024-03-07T06:40:42;35.17;;;16.55;;
22176;SDS011;11254;50.098;8.726;2024-03-07T06:43:10;41.80;;;17.95;;
22176;SDS011;11254;50.098;8.726;2024-03-07T06:45:39;31.13;;;16.00;;
22176;SDS011;11254;50.098;8.726;2024-03-07T06:48:09;31.50;;;16.42;;
22176;SDS011;11254;50.098;8.726;2024-03-07T06:50:38;33.08;;;16.33;;
22176;SDS011;11254;50.098;8.726;2024-03-07T06:53:08;32.25;;;17.42;;
22176;SDS011;11254;50.098;8.726;2024-03-07T06:55:36;35.33;;;17.00;;
22176;SDS011;11254;50.098;8.726;2024-03-07T06:58:05;31.23;;;17.23;;
22176;SDS011;11254;50.098;8.726;2024-03-07T07:00:34;31.63;;;16.20;;
22176;SDS011;11254;50.098;8.726;2024-03-07T07:03:04;33.28;;;16.08;;
22176;SDS011;11254;50.098;8.726;2024-03-07T07:05:34;33.78;;;16.98;;
22176;SDS011;11254;50.098;8.726;2024-03-07T07:08:03;34.65;;;17.35;;
22176;SDS011;11254;50.098;8.726;2024-03-07T07:10:34;33.85;;;16.38;;
22176;SDS011;11254;50.098;8.726;2024-03-07T07:13:03;36.25;;;17.40;;
22176;SDS011;11254;50.098;8.726;2024-03-07T07:15:32;35.92;;;17.13;;
22176;SDS011;11254;50.098;8.726;2024-03-07T07:18:01;32.08;;;16.90;;
22176;SDS011;11254;50.098;8.726;2024-03-07T07:20:30;32.50;;;16.27;;
22176;SDS011;11254;50.098;8.726;2024-03-07T07:23:01;35.67;;;16.98;;
22176;SDS011;11254;50.098;8.726;2024-03-07T07:25:30;36.92;;;17.48;;
22176;SDS011;11254;50.098;8.726;2024-03-07T07:28:01;35.97;;;16.98;;
22176;SDS011;11254;50.098;8.726;2024-03-07T07:30:31;33.85;;;16.65;;
22176;SDS011;11254;50.098;8.726;2024-03-07T07:33:00;30.67;;;16.25;;
22176;SDS011;11254;50.098;8.726;2024-03-07T07:35:28;34.55;;;17.05;;
22176;SDS011;11254;50.098;8.726;2024-03-07T07:37:58;35.67;;;17.05;;
22176;SDS011;11254;50.098;8.726;2024-03-07T07:40:27;36.63;;;17.90;;
22176;SDS011;11254;50.098;8.726;2024-03-07T07:42:58;34.13;;;16.80;;
22176;SDS011;11254;50.098;8.726;2024-03-07T07:45:29;34.78;;;16.02;;
22176;SDS011;11254;50.098;8.726;2024-03-07T07:47:59;31.10;;;17.27;;
22176;SDS011;11254;50.098;8.726;2024-03-07T07:50:27;33.85;;;17.27;;
22176;SDS011;11254;50.098;8.726;2024-03-07T07:52:57;35.08;;;15.88;;
22176;SDS011;11254;50.098;8.726;2024-03-07T07:55:27;34.65;;;16.85;;
22176;SDS011;11254;50.098;8.726;2024-03-07T07:57:57;35.45;;;17.23;;
22176;SDS011;11254;50.098;8.726;2024-03-07T08:00:26;33.47;;;16.63;;
22176;SDS011;11254;50.098;8.726;2024-03-07T08:02:59;34.45;;;17.40;;
22176;SDS011;11254;50.098;8.726;2024-03-07T08:05:28;30.85;;;15.70;;
22176;SDS011;11254;50.098;8.726;2024-03-07T08:07:59;30.35;;;16.52;;
22176;SDS011;11254;50.098;8.726;2024-03-07T08:10:29;35.05;;;16.27;;
22176;SDS011;11254;50.098;8.726;2024-03-07T08:12:58;31.45;;;16.90;;
22176;SDS011;11254;50.098;8.726;2024-03-07T08:15:27;33.28;;;16.33;;
22176;SDS011;11254;50.098;8.726;2024-03-07T08:17:56;31.90;;;15.90;;
22176;SDS011;11254;50.098;8.726;2024-03-07T08:20:27;30.05;;;15.05;;
22176;SDS011;11254;50.098;8.726;2024-03-07T08:22:56;34.33;;;15.95;;
22176;SDS011;11254;50.098;8.726;2024-03-07T08:25:26;29.20;;;15.10;;
22176;SDS011;11254;50.098;8.726;2024-03-07T08:27:57;27.30;;;14.43;;
22176;SDS011;11254;50.098;8.726;2024-03-07T08:30:26;27.60;;;14.45;;
22176;SDS011;11254;50.098;8.726;2024-03-07T08:32:56;27.23;;;14.20;;
22176;SDS011;11254;50.098;8.726;2024-03-07T08:35:27;25.98;;;14.32;;
22176;SDS011;11254;50.098;8.726;2024-03-07T08:37:56;26.73;;;15.10;;
22176;SDS011;11254;50.098;8.726;2024-03-07T08:40:25;26.27;;;14.43;;
22176;SDS011;11254;50.098;8.726;2024-03-07T08:42:58;24.80;;;14.35;;
22176;SDS011;11254;50.098;8.726;2024-03-07T08:45:27;23.40;;;14.05;;
22176;SDS011;11254;50.098;8.726;2024-03-07T08:48:00;23.15;;;13.65;;
22176;SDS011;11254;50.098;8.726;2024-03-07T08:50:32;24.52;;;14.15;;
22176;SDS011;11254;50.098;8.726;2024-03-07T08:53:01;27.55;;;14.20;;
22176;SDS011;11254;50.098;8.726;2024-03-07T08:55:31;25.02;;;13.80;;
22176;SDS011;11254;50.098;8.726;2024-03-07T08:58:02;21.88;;;12.43;;
22176;SDS011;11254;50.098;8.726;2024-03-07T09:00:33;27.45;;;14.07;;
22176;SDS011;11254;50.098;8.726;2024-03-07T09:03:05;25.25;;;12.77;;
22176;SDS011;11254;50.098;8.726;2024-03-07T09:05:39;23.25;;;12.88;;
22176;SDS011;11254;50.098;8.726;2024-03-07T09:08:08;25.25;;;14.05;;
22176;SDS011;11254;50.098;8.726;2024-03-07T09:10:36;25.10;;;12.90;;
22176;SDS011;11254;50.098;8.726;2024-03-07T09:13:10;21.65;;;12.65;;
22176;SDS011;11254;50.098;8.726;2024-03-07T09:15:38;23.02;;;12.57;;
22176;SDS011;11254;50.098;8.726;2024-03-07T09:18:07;22.13;;;12.70;;
22176;SDS011;11254;50.098;8.726;2024-03-07T09:20:36;25.30;;;13.23;;
22176;SDS011;11254;50.098;8.726;2024-03-07T09:23:06;26.17;;;13.32;;
22176;SDS011;11254;50.098;8.726;2024-03-07T09:25:35;25.63;;;12.80;;
22176;SDS011;11254;50.098;8.726;2024-03-07T09:28:04;26.25;;;13.73;;
22176;SDS011;11254;50.098;8.726;2024-03-07T09:30:33;25.80;;;14.38;;
22176;SDS011;11254;50.098;8.726;2024-03-07T09:33:06;28.98;;;14.45;;
22176;SDS011;11254;50.098;8.726;2024-03-07T09:35:38;27.63;;;14.45;;
22176;SDS011;11254;50.098;8.726;2024-03-07T09:38:09;27.67;;;14.30;;
22176;SDS011;11254;50.098;8.726;2024-03-07T09:40:38;28.02;;;14.85;;
22176;SDS011;11254;50.098;8.726;2024-03-07T09:43:07;27.90;;;13.98;;
22176;SDS011;11254;50.098;8.726;2024-03-07T09:45:37;26.08;;;13.48;;
22176;SDS011;11254;50.098;8.726;2024-03-07T09:48:06;26.30;;;14.05;;
22176;SDS011;11254;50.098;8.726;2024-03-07T09:50:36;26.58;;;13.18;;
22176;SDS011;11254;50.098;8.726;2024-03-07T09:53:05;25.45;;;14.05;;
22176;SDS011;11254;50.098;8.726;2024-03-07T09:55:36;26.27;;;13.88;;
22176;SDS011;11254;50.098;8.726;2024-03-07T09:58:05;27.50;;;13.45;;
22176;SDS011;11254;50.098;8.726;2024-03-07T10:00:34;28.25;;;13.65;;
22176;SDS011;11254;50.098;8.726;2024-03-07T10:03:05;25.40;;;12.93;;
22176;SDS011;11254;50.098;8.726;2024-03-07T10:05:34;26.20;;;13.13;;
22176;SDS011;11254;50.098;8.726;2024-03-07T10:08:04;26.63;;;13.25;;
22176;SDS011;11254;50.098;8.726;2024-03-07T10:10:34;29.38;;;13.00;;
22176;SDS011;11254;50.098;8.726;2024-03-07T10:13:05;26.90;;;13.57;;
22176;SDS011;11254;50.098;8.726;2024-03-07T10:15:40;24.60;;;12.65;;
22176;SDS011;11254;50.098;8.726;2024-03-07T10:18:17;25.30;;;13.30;;
22176;SDS011;11254;50.098;8.726;2024-03-07T10:20:54;24.98;;;13.40;;
22176;SDS011;11254;50.098;8.726;2024-03-07T10:23:28;31.88;;;14.10;;
22176;SDS011;11254;50.098;8.726;2024-03-07T10:26:09;25.88;;;13.30;;
22176;SDS011;11254;50.098;8.726;2024-03-07T10:28:44;26.30;;;13.50;;
22176;SDS011;11254;50.098;8.726;2024-03-07T10:31:31;24.27;;;13.27;;
22176;SDS011;11254;50.098;8.726;2024-03-07T10:34:07;24.55;;;13.00;;
22176;SDS011;11254;50.098;8.726;2024-03-07T10:36:40;26.30;;;13.90;;
22176;SDS011;11254;50.098;8.726;2024-03-07T13:59:49;16.08;;;8.10;;
22176;SDS011;11254;50.098;8.726;2024-03-07T14:05:34;15.80;;;8.30;;
22176;SDS011;11254;50.098;8.726;2024-03-07T14:32:40;15.13;;;8.38;;
22176;SDS011;11254;50.098;8.726;2024-03-07T14:35:13;15.57;;;8.50;;
22176;SDS011;11254;50.098;8.726;2024-03-07T14:37:49;15.70;;;8.50;;
22176;SDS011;11254;50.098;8.726;2024-03-07T14:40:28;15.90;;;7.95;;
22176;SDS011;11254;50.098;8.726;2024-03-07T14:42:58;14.63;;;7.90;;
22176;SDS011;11254;50.098;8.726;2024-03-07T14:45:28;16.00;;;7.43;;
22176;SDS011;11254;50.098;8.726;2024-03-07T14:47:59;16.98;;;8.10;;
22176;SDS011;11254;50.098;8.726;2024-03-07T14:50:30;16.08;;;8.18;;
22176;SDS011;11254;50.098;8.726;2024-03-07T14:53:01;16.00;;;7.85;;
22176;SDS011;11254;50.098;8.726;2024-03-07T14:55:33;15.65;;;7.93;;
22176;SDS011;11254;50.098;8.726;2024-03-07T14:58:04;16.88;;;7.65;;
22176;SDS011;11254;50.098;8.726;2024-03-07T15:00:36;14.20;;;7.70;;
22176;SDS011;11254;50.098;8.726;2024-03-07T15:03:26;14.38;;;7.38;;
22176;SDS011;11254;50.098;8.726;2024-03-07T15:05:57;14.57;;;7.72;;
22176;SDS011;11254;50.098;8.726;2024-03-07T15:08:29;19.30;;;7.57;;
22176;SDS011;11254;50.098;8.726;2024-03-07T15:11:03;14.07;;;7.20;;
22176;SDS011;11254;50.098;8.726;2024-03-07T15:13:41;17.10;;;7.72;;
22176;SDS011;11254;50.098;8.726;2024-03-07T15:16:19;14.60;;;7.03;;
22176;SDS011;11254;50.098;8.726;2024-03-07T15:19:03;13.23;;;7.47;;
22176;SDS011;11254;50.098;8.726;2024-03-07T15:21:41;15.30;;;7.75;;
22176;SDS011;11254;50.098;8.726;2024-03-07T15:24:12;15.70;;;7.90;;
22176;SDS011;11254;50.098;8.726;2024-03-07T15:26:49;17.52;;;8.00;;
22176;SDS011;11254;50.098;8.726;2024-03-07T15:29:31;18.40;;;8.20;;
22176;SDS011;11254;50.098;8.726;2024-03-07T15:32:09;16.65;;;7.85;;
22176;SDS011;11254;50.098;8.726;2024-03-07T15:34:43;16.48;;;7.70;;
22176;SDS011;11254;50.098;8.726;2024-03-07T15:37:22;18.48;;;8.15;;
22176;SDS011;11254;50.098;8.726;2024-03-07T15:39:56;15.75;;;8.05;;
22176;SDS011;11254;50.098;8.726;2024-03-07T15:42:27;14.32;;;7.38;;
22176;SDS011;11254;50.098;8.726;2024-03-07T15:44:58;16.15;;;8.57;;
22176;SDS011;11254;50.098;8.726;2024-03-07T15:47:30;17.85;;;8.68;;
22176;SDS011;11254;50.098;8.726;2024-03-07T15:50:18;16.38;;;8.13;;
22176;SDS011;11254;50.098;8.726;2024-03-07T15:53:04;21.50;;;9.20;;
22176;SDS011;11254;50.098;8.726;2024-03-07T15:55:37;18.33;;;8.38;;
22176;SDS011;11254;50.098;8.726;2024-03-07T15:58:10;16.80;;;7.80;;
22176;SDS011;11254;50.098;8.726;2024-03-07T16:00:55;17.60;;;8.88;;
22176;SDS011;11254;50.098;8.726;2024-03-07T16:03:28;17.25;;;8.73;;
22176;SDS011;11254;50.098;8.726;2024-03-07T16:06:02;16.33;;;8.40;;
22176;SDS011;11254;50.098;8.726;2024-03-07T16:08:36;18.25;;;8.73;;
22176;SDS011;11254;50.098;8.726;2024-03-07T16:11:12;15.50;;;8.43;;
22176;SDS011;11254;50.098;8.726;2024-03-07T16:13:41;15.60;;;8.35;;
22176;SDS011;11254;50.098;8.726;2024-03-07T16:16:19;18.45;;;9.07;;
22176;SDS011;11254;50.098;8.726;2024-03-07T16:18:56;17.05;;;8.15;;
22176;SDS011;11254;50.098;8.726;2024-03-07T16:21:37;17.77;;;8.63;;
22176;SDS011;11254;50.098;8.726;2024-03-07T16:24:13;17.10;;;8.15;;
22176;SDS011;11254;50.098;8.726;2024-03-07T16:26:48;15.25;;;8.18;;
22176;SDS011;11254;50.098;8.726;2024-03-07T16:29:22;16.55;;;8.35;;
22176;SDS011;11254;50.098;8.726;2024-03-07T16:31:59;17.35;;;8.18;;
22176;SDS011;11254;50.098;8.726;2024-03-07T16:34:33;29.83;;;15.38;;
22176;SDS011;11254;50.098;8.726;2024-03-07T16:37:13;98.28;;;44.30;;
22176;SDS011;11254;50.098;8.726;2024-03-07T16:40:10;20.40;;;9.80;;
22176;SDS011;11254;50.098;8.726;2024-03-07T16:43:07;36.70;;;16.60;;
22176;SDS011;11254;50.098;8.726;2024-03-07T16:46:02;18.85;;;9.18;;
22176;SDS011;11254;50.098;8.726;2024-03-07T16:48:57;28.42;;;12.63;;
22176;SDS011;11254;50.098;8.726;2024-03-07T16:51:52;24.17;;;11.50;;
22176;SDS011;11254;50.098;8.726;2024-03-07T16:54:52;46.55;;;20.60;;
22176;SDS011;11254;50.098;8.726;2024-03-07T16:57:46;96.22;;;39.42;;
22176;SDS011;11254;50.098;8.726;2024-03-07T17:00:44;22.85;;;10.57;;
22176;SDS011;11254;50.098;8.726;2024-03-07T17:03:25;16.67;;;8.13;;
22176;SDS011;11254;50.098;8.726;2024-03-07T17:06:21;41.55;;;17.80;;
22176;SDS011;11254;50.098;8.726;2024-03-07T17:09:20;52.55;;;23.05;;
22176;SDS011;11254;50.098;8.726;2024-03-07T17:12:16;23.85;;;11.43;;
22176;SDS011;11254;50.098;8.726;2024-03-07T17:14:54;32.58;;;13.25;;
22176;SDS011;11254;50.098;8.726;2024-03-07T17:17:30;16.30;;;8.27;;
22176;SDS011;11254;50.098;8.726;2024-03-07T17:20:13;15.50;;;7.82;;
22176;SDS011;11254;50.098;8.726;2024-03-07T17:22:46;45.50;;;18.77;;
22176;SDS011;11254;50.098;8.726;2024-03-07T17:29:42;24.52;;;11.57;;
22176;SDS011;11254;50.098;8.726;2024-03-07T17:32:19;17.88;;;9.10;;
22176;SDS011;11254;50.098;8.726;2024-03-07T17:34:59;20.35;;;8.55;;
22176;SDS011;11254;50.098;8.726;2024-03-07T17:37:28;13.45;;;8.13;;
22176;SDS011;11254;50.098;8.726;2024-03-07T17:40:01;19.77;;;7.90;;
22176;SDS011;11254;50.098;8.726;2024-03-07T17:42:48;16.58;;;8.05;;
22176;SDS011;11254;50.098;8.726;2024-03-07T17:45:24;14.38;;;7.75;;
22176;SDS011;11254;50.098;8.726;2024-03-07T17:48:07;16.55;;;7.55;;
22176;SDS011;11254;50.098;8.726;2024-03-07T17:50:42;16.35;;;7.55;;
22176;SDS011;11254;50.098;8.726;2024-03-07T17:53:23;13.63;;;7.45;;
22176;SDS011;11254;50.098;8.726;2024-03-07T17:55:59;19.80;;;8.00;;
22176;SDS011;11254;50.098;8.726;2024-03-07T17:58:34;14.55;;;7.80;;
22176;SDS011;11254;50.098;8.726;2024-03-07T18:01:15;14.95;;;7.50;;
22176;SDS011;11254;50.098;8.726;2024-03-07T18:04:10;15.57;;;6.95;;
22176;SDS011;11254;50.098;8.726;2024-03-07T18:07:09;18.20;;;8.13;;
22176;SDS011;11254;50.098;8.726;2024-03-07T18:10:02;15.82;;;7.78;;
22176;SDS011;11254;50.098;8.726;2024-03-07T18:12:49;15.57;;;8.02;;
22176;SDS011;11254;50.098;8.726;2024-03-07T18:15:24;16.52;;;7.95;;
22176;SDS011;11254;50.098;8.726;2024-03-07T18:18:00;15.85;;;7.50;;
22176;SDS011;11254;50.098;8.726;2024-03-07T18:20:37;16.40;;;7.72;;
22176;SDS011;11254;50.098;8.726;2024-03-07T18:23:18;15.07;;;7.82;;
22176;SDS011;11254;50.098;8.726;2024-03-07T18:25:55;18.05;;;8.30;;
22176;SDS011;11254;50.098;8.726;2024-03-07T18:28:34;16.17;;;8.10;;
22176;SDS011;11254;50.098;8.726;2024-03-07T18:31:04;17.95;;;7.65;;
22176;SDS011;11254;50.098;8.726;2024-03-07T18:33:47;16.80;;;8.43;;
22176;SDS011;11254;50.098;8.726;2024-03-07T18:36:27;15.98;;;7.93;;
22176;SDS011;11254;50.098;8.726;2024-03-07T18:39:06;16.23;;;8.90;;
22176;SDS011;11254;50.098;8.726;2024-03-07T18:41:57;17.05;;;8.57;;
22176;SDS011;11254;50.098;8.726;2024-03-07T18:44:32;16.15;;;8.18;;
22176;SDS011;11254;50.098;8.726;2024-03-07T18:47:10;18.73;;;9.48;;
22176;SDS011;11254;50.098;8.726;2024-03-07T18:49:46;18.30;;;8.75;;
22176;SDS011;11254;50.098;8.726;2024-03-07T18:52:24;16.58;;;8.60;;
22176;SDS011;11254;50.098;8.726;2024-03-07T18:54:57;18.60;;;9.60;;
22176;SDS011;11254;50.098;8.726;2024-03-07T18:57:47;18.35;;;9.23;;
22176;SDS011;11254;50.098;8.726;2024-03-07T19:00:17;17.55;;;9.13;;
22176;SDS011;11254;50.098;8.726;2024-03-07T19:03:01;20.83;;;9.70;;